Time;durP1;ratioP1;P1;durP2;ratioP2;P2;SDS_P1;SDS_P2;PMS_P1;PMS_P2;Temp;Humidity;BMP_temperature;BMP_pressure;BME280_temperature;BME280_humidity;BME280_pressure;Samples;Min_cycle;Max_cycle;Signal;HPM_P1;HPM_P2
2023/03/08 00:00:13;;;;;;;18.63;17.07;;;;;;;;;;517079;28;1549;-75
2023/03/08 00:00:28;;;;;;;20.15;18.10;;;;;;;;;;515915;28;1295;-74
2023/03/08 00:00:44;;;;;;;20.02;17.92;;;;;;;;;;518521;28;1525;-75
2023/03/08 00:00:59;;;;;;;20.17;18.20;;;;;;;;;;517782;28;1283;-75
2023/03/08 00:01:17;;;;;;;21.52;19.23;;;;;;;;;;517689;28;1541;-74
2023/03/08 00:01:32;;;;;;;21.30;18.23;;;;;;;;;;516679;28;1549;-75
2023/03/08 00:01:47;;;;;;;23.10;18.37;;;;;;;;;;511954;28;1334;-75
2023/03/08 00:02:02;;;;;;;36.35;23.40;;;;;;;;;;515760;28;1497;-74
2023/03/08 00:02:18;;;;;;;47.97;27.30;;;;;;;;;;516241;28;1357;-74
2023/03/08 00:02:34;;;;;;;48.70;27.27;;;;;;;;;;517389;28;1434;-75
2023/03/08 00:02:52;;;;;;;43.20;26.40;;;;;;;;;;518599;28;1403;-75
2023/03/08 00:03:12;;;;;;;41.28;25.40;;;;;;;;;;517292;28;1560;-75
2023/03/08 00:03:28;;;;;;;76.82;33.20;;;;;;;;;;516190;28;1338;-75
2023/03/08 00:03:43;;;;;;;93.27;39.00;;;;;;;;;;517995;28;1264;-75
2023/03/08 00:03:59;;;;;;;74.65;36.28;;;;;;;;;;520252;28;1330;-74
2023/03/08 00:04:14;;;;;;;50.63;29.55;;;;;;;;;;520542;28;1472;-76
2023/03/08 00:04:30;;;;;;;37.30;25.03;;;;;;;;;;519402;28;1469;-75
2023/03/08 00:04:45;;;;;;;34.07;24.13;;;;;;;;;;518894;28;1521;-75
2023/03/08 00:05:01;;;;;;;41.03;25.42;;;;;;;;;;518518;28;1455;-75
2023/03/08 00:05:16;;;;;;;57.23;29.60;;;;;;;;;;518624;28;1481;-75
2023/03/08 00:05:32;;;;;;;66.95;33.70;;;;;;;;;;518708;28;1364;-75
2023/03/08 00:05:47;;;;;;;63.87;33.57;;;;;;;;;;521089;28;1314;-75
2023/03/08 00:06:04;;;;;;;60.38;32.50;;;;;;;;;;522187;28;1353;-75
2023/03/08 00:06:19;;;;;;;62.38;33.83;;;;;;;;;;522915;28;1259;-75
2023/03/08 00:06:34;;;;;;;68.30;36.42;;;;;;;;;;520527;28;1642;-75
2023/03/08 00:06:50;;;;;;;73.30;37.60;;;;;;;;;;517418;28;1287;-75
2023/03/08 00:07:05;;;;;;;69.85;35.38;;;;;;;;;;518673;28;1556;-75
2023/03/08 00:07:21;;;;;;;57.40;32.07;;;;;;;;;;516206;28;1981;-75
2023/03/08 00:07:37;;;;;;;44.97;28.98;;;;;;;;;;518736;28;1619;-75
2023/03/08 00:07:52;;;;;;;32.53;24.73;;;;;;;;;;520049;28;1256;-75
2023/03/08 00:08:08;;;;;;;26.17;21.95;;;;;;;;;;516625;28;1350;-75
2023/03/08 00:08:23;;;;;;;24.80;21.47;;;;;;;;;;517675;28;1437;-75
2023/03/08 00:08:39;;;;;;;24.23;21.33;;;;;;;;;;517495;28;1369;-75
2023/03/08 00:08:59;;;;;;;23.55;21.00;;;;;;;;;;516730;28;1493;-75
2023/03/08 00:09:14;;;;;;;24.95;20.95;;;;;;;;;;517670;28;1397;-74
2023/03/08 00:09:30;;;;;;;25.23;20.20;;;;;;;;;;518572;28;1120;-74
2023/03/08 00:09:45;;;;;;;22.80;19.60;;;;;;;;;;518941;28;1430;-75
2023/03/08 00:10:00;;;;;;;21.77;19.60;;;;;;;;;;519370;28;1504;-75
2023/03/08 00:10:16;;;;;;;21.65;19.52;;;;;;;;;;516478;28;1477;-75
2023/03/08 00:10:31;;;;;;;28.37;21.73;;;;;;;;;;515141;28;1395;-75
2023/03/08 00:10:47;;;;;;;39.33;24.85;;;;;;;;;;515918;28;1408;-75
2023/03/08 00:11:07;;;;;;;38.20;24.30;;;;;;;;;;516957;28;1283;-75
2023/03/08 00:11:22;;;;;;;29.92;21.85;;;;;;;;;;517513;28;1214;-75
2023/03/08 00:11:38;;;;;;;24.52;19.73;;;;;;;;;;520643;28;1341;-75
2023/03/08 00:11:53;;;;;;;21.97;19.10;;;;;;;;;;521926;28;1350;-75
2023/03/08 00:12:09;;;;;;;22.80;19.10;;;;;;;;;;520548;28;1515;-75
2023/03/08 00:12:24;;;;;;;25.13;19.50;;;;;;;;;;521391;28;1398;-75
2023/03/08 00:12:40;;;;;;;22.20;19.10;;;;;;;;;;517583;28;1521;-75
2023/03/08 00:12:55;;;;;;;19.53;17.53;;;;;;;;;;518352;28;1364;-75
2023/03/08 00:13:11;;;;;;;18.88;17.13;;;;;;;;;;518732;28;1242;-76
2023/03/08 00:13:26;;;;;;;20.40;18.40;;;;;;;;;;518787;28;1211;-75
2023/03/08 00:13:41;;;;;;;20.85;18.65;;;;;;;;;;519240;28;1228;-75
2023/03/08 00:13:57;;;;;;;24.37;19.80;;;;;;;;;;519157;28;1162;-75
2023/03/08 00:14:12;;;;;;;28.33;21.47;;;;;;;;;;520982;28;1489;-75
2023/03/08 00:14:27;;;;;;;26.83;20.95;;;;;;;;;;520831;28;1536;-75
2023/03/08 00:14:43;;;;;;;24.67;20.40;;;;;;;;;;520069;28;1445;-75
2023/03/08 00:14:58;;;;;;;23.77;20.25;;;;;;;;;;521187;28;1322;-75
2023/03/08 00:15:14;;;;;;;27.07;21.27;;;;;;;;;;518389;28;1368;-76
2023/03/08 00:15:29;;;;;;;29.70;22.43;;;;;;;;;;517920;28;1219;-75
2023/03/08 00:15:44;;;;;;;29.38;22.38;;;;;;;;;;518553;28;1397;-75
2023/03/08 00:16:01;;;;;;;28.03;22.10;;;;;;;;;;518932;28;1532;-75
2023/03/08 00:16:16;;;;;;;27.75;21.85;;;;;;;;;;518109;28;1275;-74
2023/03/08 00:16:32;;;;;;;30.83;22.03;;;;;;;;;;518208;28;1307;-75
2023/03/08 00:16:47;;;;;;;31.40;22.23;;;;;;;;;;520809;28;1254;-75
2023/03/08 00:17:03;;;;;;;31.80;23.03;;;;;;;;;;521077;28;1438;-75
2023/03/08 00:17:18;;;;;;;35.67;23.67;;;;;;;;;;518502;28;1271;-75
2023/03/08 00:17:36;;;;;;;32.07;22.50;;;;;;;;;;517770;28;1561;-75
2023/03/08 00:17:51;;;;;;;22.05;19.75;;;;;;;;;;519822;28;1168;-75
2023/03/08 00:18:07;;;;;;;21.73;19.37;;;;;;;;;;520945;28;1501;-75
2023/03/08 00:18:22;;;;;;;27.90;21.13;;;;;;;;;;520716;28;1434;-75
2023/03/08 00:18:41;;;;;;;31.67;22.97;;;;;;;;;;520250;28;1553;-76
2023/03/08 00:18:56;;;;;;;40.35;25.80;;;;;;;;;;521064;28;1329;-75
2023/03/08 00:19:12;;;;;;;41.47;26.13;;;;;;;;;;521765;28;1574;-77
2023/03/08 00:19:27;;;;;;;42.00;26.13;;;;;;;;;;520236;28;1429;-75
2023/03/08 00:19:43;;;;;;;43.17;25.77;;;;;;;;;;523145;28;1334;-74
2023/03/08 00:19:58;;;;;;;38.85;24.55;;;;;;;;;;519576;28;1202;-74
2023/03/08 00:20:13;;;;;;;30.20;22.77;;;;;;;;;;517537;28;1584;-74
2023/03/08 00:20:29;;;;;;;23.67;20.85;;;;;;;;;;517927;28;1556;-74
2023/03/08 00:20:44;;;;;;;25.17;20.40;;;;;;;;;;518501;28;1607;-74
2023/03/08 00:21:04;;;;;;;32.23;21.97;;;;;;;;;;518478;28;1514;-75
2023/03/08 00:21:20;;;;;;;29.67;22.25;;;;;;;;;;518688;28;1451;-74
2023/03/08 00:21:35;;;;;;;24.40;20.60;;;;;;;;;;519917;28;1434;-74
2023/03/08 00:21:50;;;;;;;21.90;19.60;;;;;;;;;;515799;28;1404;-74
2023/03/08 00:22:06;;;;;;;21.63;19.43;;;;;;;;;;518663;28;1422;-74
2023/03/08 00:22:21;;;;;;;22.63;20.13;;;;;;;;;;521683;28;1318;-74
2023/03/08 00:22:38;;;;;;;23.23;20.58;;;;;;;;;;517100;28;1360;-74
2023/03/08 00:22:53;;;;;;;23.63;20.70;;;;;;;;;;516386;28;1573;-74
2023/03/08 00:23:09;;;;;;;21.77;19.47;;;;;;;;;;518676;28;1406;-74
2023/03/08 00:23:24;;;;;;;20.67;18.67;;;;;;;;;;517973;28;1477;-74
2023/03/08 00:23:40;;;;;;;20.60;18.70;;;;;;;;;;518230;28;1516;-74
2023/03/08 00:23:55;;;;;;;20.73;18.83;;;;;;;;;;518655;28;1534;-74
2023/03/08 00:24:11;;;;;;;20.47;18.57;;;;;;;;;;520020;28;1362;-74
2023/03/08 00:24:27;;;;;;;20.45;18.45;;;;;;;;;;520697;28;1631;-74
2023/03/08 00:24:42;;;;;;;21.10;19.07;;;;;;;;;;521125;28;1403;-74
2023/03/08 00:24:57;;;;;;;21.90;19.67;;;;;;;;;;518878;28;1263;-74
2023/03/08 00:25:15;;;;;;;21.93;19.73;;;;;;;;;;519437;28;1082;-74
2023/03/08 00:25:30;;;;;;;20.73;18.83;;;;;;;;;;519019;28;1525;-74
2023/03/08 00:25:51;;;;;;;20.57;18.77;;;;;;;;;;520716;28;1555;-75
2023/03/08 00:26:08;;;;;;;21.50;19.48;;;;;;;;;;520087;28;1562;-74
2023/03/08 00:26:23;;;;;;;22.48;20.15;;;;;;;;;;519560;28;1592;-74
2023/03/08 00:26:39;;;;;;;22.13;19.93;;;;;;;;;;520693;28;1366;-75
2023/03/08 00:26:54;;;;;;;21.90;19.77;;;;;;;;;;518086;28;1255;-75
2023/03/08 00:27:09;;;;;;;21.45;19.35;;;;;;;;;;521041;28;1357;-75
2023/03/08 00:27:24;;;;;;;22.03;19.93;;;;;;;;;;521154;28;1961;-74
2023/03/08 00:27:40;;;;;;;22.33;20.23;;;;;;;;;;517852;28;1341;-74
2023/03/08 00:27:55;;;;;;;22.42;20.23;;;;;;;;;;519266;28;1560;-75
2023/03/08 00:28:10;;;;;;;23.00;20.80;;;;;;;;;;518884;28;1410;-74
2023/03/08 00:28:26;;;;;;;22.03;20.03;;;;;;;;;;517403;28;1323;-75
2023/03/08 00:28:41;;;;;;;21.70;19.80;;;;;;;;;;518424;28;1425;-74
2023/03/08 00:28:57;;;;;;;21.37;19.50;;;;;;;;;;518934;28;1469;-74
2023/03/08 00:29:12;;;;;;;21.33;19.42;;;;;;;;;;519615;28;1254;-74
2023/03/08 00:29:27;;;;;;;21.63;19.73;;;;;;;;;;518706;28;1313;-74
2023/03/08 00:29:42;;;;;;;21.57;19.67;;;;;;;;;;517849;28;1406;-74
2023/03/08 00:29:58;;;;;;;21.92;20.02;;;;;;;;;;516480;28;1395;-74
2023/03/08 00:30:14;;;;;;;22.13;20.23;;;;;;;;;;518918;28;1321;-74
2023/03/08 00:30:29;;;;;;;21.75;19.85;;;;;;;;;;517794;28;1260;-74
2023/03/08 00:30:45;;;;;;;21.10;19.30;;;;;;;;;;516813;28;1399;-74
2023/03/08 00:31:04;;;;;;;20.95;19.15;;;;;;;;;;515474;28;1414;-75
2023/03/08 00:31:19;;;;;;;20.85;19.05;;;;;;;;;;516139;28;1418;-74
2023/03/08 00:31:34;;;;;;;20.57;18.87;;;;;;;;;;515202;28;1278;-75
2023/03/08 00:31:50;;;;;;;20.75;19.02;;;;;;;;;;516098;28;1445;-75
2023/03/08 00:32:05;;;;;;;21.13;19.33;;;;;;;;;;516548;28;1315;-75
2023/03/08 00:32:21;;;;;;;21.52;19.63;;;;;;;;;;516480;28;1461;-74
2023/03/08 00:32:36;;;;;;;21.33;19.50;;;;;;;;;;517776;28;1563;-75
2023/03/08 00:32:51;;;;;;;22.30;20.30;;;;;;;;;;517371;28;1506;-75
2023/03/08 00:33:06;;;;;;;22.25;20.15;;;;;;;;;;517865;28;1355;-75
2023/03/08 00:33:22;;;;;;;21.63;19.73;;;;;;;;;;516902;28;1641;-75
2023/03/08 00:33:37;;;;;;;21.55;19.65;;;;;;;;;;518689;28;1381;-74
2023/03/08 00:33:54;;;;;;;21.50;19.50;;;;;;;;;;518585;28;1287;-75
2023/03/08 00:34:09;;;;;;;20.95;19.05;;;;;;;;;;516922;28;1259;-74
2023/03/08 00:34:24;;;;;;;21.33;19.33;;;;;;;;;;519774;28;1536;-75
2023/03/08 00:34:45;;;;;;;23.27;20.97;;;;;;;;;;515567;28;1334;-74
2023/03/08 00:35:00;;;;;;;25.20;22.50;;;;;;;;;;518606;28;1398;-75
2023/03/08 00:35:18;;;;;;;25.38;22.70;;;;;;;;;;518597;28;1270;-75
2023/03/08 00:35:34;;;;;;;24.42;22.02;;;;;;;;;;519025;28;1406;-74
2023/03/08 00:35:59;;;;;;;23.47;21.27;;;;;;;;;;519898;28;1453;-75
2023/03/08 00:36:16;;;;;;;22.58;20.58;;;;;;;;;;521722;28;1198;-74
2023/03/08 00:36:31;;;;;;;22.58;20.63;;;;;;;;;;519183;28;1466;-74
2023/03/08 00:36:46;;;;;;;22.77;20.87;;;;;;;;;;519776;28;1298;-75
2023/03/08 00:37:02;;;;;;;23.13;21.13;;;;;;;;;;517402;28;1241;-75
2023/03/08 00:37:17;;;;;;;23.17;21.17;;;;;;;;;;517958;28;1252;-74
2023/03/08 00:37:33;;;;;;;23.63;21.53;;;;;;;;;;520250;28;1440;-74
2023/03/08 00:37:48;;;;;;;23.63;21.52;;;;;;;;;;519876;28;1484;-74
2023/03/08 00:38:03;;;;;;;23.97;21.87;;;;;;;;;;521254;28;1622;-74
2023/03/08 00:38:19;;;;;;;23.90;21.80;;;;;;;;;;516339;28;1255;-75
2023/03/08 00:38:35;;;;;;;23.40;21.40;;;;;;;;;;517868;28;1530;-75
2023/03/08 00:38:51;;;;;;;23.60;21.50;;;;;;;;;;520858;28;1398;-75
2023/03/08 00:39:07;;;;;;;23.58;21.52;;;;;;;;;;520407;28;1504;-74
2023/03/08 00:39:22;;;;;;;23.83;21.83;;;;;;;;;;520990;28;1321;-75
2023/03/08 00:39:37;;;;;;;24.10;22.00;;;;;;;;;;520096;28;1354;-74
2023/03/08 00:39:53;;;;;;;23.33;21.33;;;;;;;;;;518432;28;1386;-75
2023/03/08 00:40:09;;;;;;;23.00;21.00;;;;;;;;;;517624;28;1330;-75
2023/03/08 00:40:24;;;;;;;24.02;21.92;;;;;;;;;;518327;28;1267;-74
2023/03/08 00:40:40;;;;;;;24.15;22.00;;;;;;;;;;516504;28;1479;-75
2023/03/08 00:40:55;;;;;;;23.77;21.67;;;;;;;;;;518908;28;1238;-74
2023/03/08 00:41:11;;;;;;;23.87;21.77;;;;;;;;;;520156;28;1399;-74
2023/03/08 00:41:27;;;;;;;24.10;21.92;;;;;;;;;;515786;28;1314;-74
2023/03/08 00:41:42;;;;;;;23.80;21.70;;;;;;;;;;518348;28;1534;-75
2023/03/08 00:41:57;;;;;;;23.50;21.50;;;;;;;;;;518106;28;1423;-74
2023/03/08 00:42:12;;;;;;;23.40;21.40;;;;;;;;;;517018;28;1337;-74
2023/03/08 00:42:28;;;;;;;23.87;21.77;;;;;;;;;;518795;28;1366;-74
2023/03/08 00:42:43;;;;;;;24.27;22.07;;;;;;;;;;520971;28;1342;-74
2023/03/08 00:42:59;;;;;;;24.02;21.92;;;;;;;;;;520411;28;1264;-73
2023/03/08 00:43:14;;;;;;;23.93;21.83;;;;;;;;;;518743;28;1297;-74
2023/03/08 00:43:29;;;;;;;24.02;21.92;;;;;;;;;;518489;28;1214;-74
2023/03/08 00:43:45;;;;;;;24.70;22.50;;;;;;;;;;516662;28;1453;-74
2023/03/08 00:44:00;;;;;;;25.33;23.13;;;;;;;;;;518786;28;1362;-74
2023/03/08 00:44:15;;;;;;;24.92;22.73;;;;;;;;;;518624;28;1355;-74
2023/03/08 00:44:31;;;;;;;24.37;22.17;;;;;;;;;;517804;28;1224;-74
2023/03/08 00:44:46;;;;;;;24.60;22.40;;;;;;;;;;520128;28;1316;-74
2023/03/08 00:45:02;;;;;;;25.02;22.83;;;;;;;;;;521017;28;1594;-74
2023/03/08 00:45:17;;;;;;;25.37;23.07;;;;;;;;;;520089;28;1574;-75
2023/03/08 00:45:32;;;;;;;25.13;22.83;;;;;;;;;;518408;28;1371;-74
2023/03/08 00:45:48;;;;;;;25.30;23.00;;;;;;;;;;520903;28;1425;-75
2023/03/08 00:46:04;;;;;;;25.23;22.93;;;;;;;;;;521930;28;1419;-74
2023/03/08 00:46:19;;;;;;;24.73;22.52;;;;;;;;;;520302;28;1440;-74
2023/03/08 00:46:35;;;;;;;25.27;23.07;;;;;;;;;;519724;28;1489;-74
2023/03/08 00:46:50;;;;;;;25.50;23.20;;;;;;;;;;518057;28;1619;-74
2023/03/08 00:47:05;;;;;;;25.40;23.10;;;;;;;;;;519316;28;1251;-73
2023/03/08 00:47:21;;;;;;;25.60;23.30;;;;;;;;;;516233;28;1962;-73
2023/03/08 00:47:37;;;;;;;25.17;22.90;;;;;;;;;;517584;28;1343;-73
2023/03/08 00:47:52;;;;;;;22.73;20.73;;;;;;;;;;518571;28;1429;-74
2023/03/08 00:48:07;;;;;;;21.48;19.58;;;;;;;;;;520290;28;1520;-73
2023/03/08 00:48:23;;;;;;;22.40;20.47;;;;;;;;;;522664;28;1590;-74
2023/03/08 00:48:39;;;;;;;23.25;21.25;;;;;;;;;;521507;28;1555;-74
2023/03/08 00:48:54;;;;;;;22.85;20.88;;;;;;;;;;517052;28;1505;-73
2023/03/08 00:49:11;;;;;;;21.83;19.93;;;;;;;;;;518550;28;1361;-73
2023/03/08 00:49:27;;;;;;;20.90;19.10;;;;;;;;;;518709;28;1513;-73
2023/03/08 00:49:43;;;;;;;21.33;19.47;;;;;;;;;;518640;28;1282;-74
2023/03/08 00:49:58;;;;;;;22.40;20.42;;;;;;;;;;517147;28;1245;-74
2023/03/08 00:50:13;;;;;;;22.50;20.60;;;;;;;;;;515819;28;1315;-74
2023/03/08 00:50:29;;;;;;;22.20;20.30;;;;;;;;;;516222;28;1540;-74
2023/03/08 00:50:44;;;;;;;21.77;19.87;;;;;;;;;;516629;28;1498;-74
2023/03/08 00:51:00;;;;;;;22.52;20.52;;;;;;;;;;515639;28;1581;-73
2023/03/08 00:51:18;;;;;;;23.40;21.33;;;;;;;;;;516683;28;1355;-74
2023/03/08 00:51:33;;;;;;;23.40;21.30;;;;;;;;;;518783;28;1532;-74
2023/03/08 00:51:48;;;;;;;23.77;21.67;;;;;;;;;;516810;28;1247;-74
2023/03/08 00:52:05;;;;;;;24.02;21.83;;;;;;;;;;514883;28;1372;-73
2023/03/08 00:52:20;;;;;;;23.83;21.73;;;;;;;;;;515262;28;1233;-74
2023/03/08 00:52:35;;;;;;;23.80;21.70;;;;;;;;;;517445;28;1225;-74
2023/03/08 00:52:51;;;;;;;23.55;21.45;;;;;;;;;;515742;28;1268;-74
2023/03/08 00:53:07;;;;;;;23.50;21.40;;;;;;;;;;515910;28;1493;-74
2023/03/08 00:53:22;;;;;;;24.13;21.92;;;;;;;;;;518945;28;1532;-74
2023/03/08 00:53:37;;;;;;;24.17;22.05;;;;;;;;;;518011;28;1167;-74
2023/03/08 00:53:53;;;;;;;23.67;21.57;;;;;;;;;;518588;28;1228;-74
2023/03/08 00:54:11;;;;;;;23.60;21.50;;;;;;;;;;518570;28;1231;-74
2023/03/08 00:54:26;;;;;;;24.77;22.58;;;;;;;;;;517283;28;1284;-74
2023/03/08 00:54:41;;;;;;;24.80;22.60;;;;;;;;;;515561;28;1375;-74
2023/03/08 00:54:57;;;;;;;24.40;22.20;;;;;;;;;;516255;28;1466;-74
2023/03/08 00:55:12;;;;;;;24.40;22.10;;;;;;;;;;518415;28;1345;-74
2023/03/08 00:55:27;;;;;;;24.30;22.00;;;;;;;;;;518816;28;1275;-74
2023/03/08 00:55:50;;;;;;;24.17;21.97;;;;;;;;;;520133;28;1508;-73
2023/03/08 00:56:06;;;;;;;23.75;21.65;;;;;;;;;;520327;28;1446;-73
2023/03/08 00:56:21;;;;;;;23.40;21.38;;;;;;;;;;520395;28;1363;-74
2023/03/08 00:56:37;;;;;;;24.33;22.23;;;;;;;;;;520438;28;1502;-73
2023/03/08 00:56:52;;;;;;;24.40;22.20;;;;;;;;;;518734;28;1552;-74
2023/03/08 00:57:07;;;;;;;23.70;21.52;;;;;;;;;;518515;28;1529;-74
2023/03/08 00:57:22;;;;;;;23.27;21.23;;;;;;;;;;519079;28;1359;-74
2023/03/08 00:57:38;;;;;;;23.40;21.40;;;;;;;;;;518126;28;1332;-74
2023/03/08 00:57:53;;;;;;;23.88;21.77;;;;;;;;;;520576;28;1505;-73
2023/03/08 00:58:08;;;;;;;23.17;21.17;;;;;;;;;;518323;28;1210;-74
2023/03/08 00:58:26;;;;;;;21.93;20.03;;;;;;;;;;517417;28;1339;-73
2023/03/08 00:58:42;;;;;;;22.88;20.80;;;;;;;;;;518967;28;1426;-74
2023/03/08 00:58:57;;;;;;;23.45;21.35;;;;;;;;;;515861;28;1251;-73
2023/03/08 00:59:12;;;;;;;23.50;21.43;;;;;;;;;;516980;28;1272;-74
2023/03/08 00:59:28;;;;;;;23.40;21.40;;;;;;;;;;516671;28;1414;-74
2023/03/08 00:59:43;;;;;;;22.70;20.70;;;;;;;;;;516985;28;1506;-75
2023/03/08 00:59:58;;;;;;;23.00;21.00;;;;;;;;;;518782;28;1552;-74
2023/03/08 01:00:14;;;;;;;23.30;21.20;;;;;;;;;;517161;28;1192;-74
2023/03/08 01:00:30;;;;;;;23.75;21.65;;;;;;;;;;517318;28;1509;-74
2023/03/08 01:00:46;;;;;;;24.47;22.27;;;;;;;;;;520610;28;1495;-73
2023/03/08 01:01:01;;;;;;;24.38;22.17;;;;;;;;;;518266;28;1417;-74
2023/03/08 01:01:17;;;;;;;24.50;22.30;;;;;;;;;;518803;28;1569;-74
2023/03/08 01:01:33;;;;;;;25.15;22.95;;;;;;;;;;516456;28;1295;-74
2023/03/08 01:01:48;;;;;;;25.37;23.17;;;;;;;;;;515358;28;1262;-73
2023/03/08 01:02:04;;;;;;;24.50;22.33;;;;;;;;;;518555;28;1404;-74
2023/03/08 01:02:19;;;;;;;24.27;22.08;;;;;;;;;;520754;28;1594;-74
2023/03/08 01:02:34;;;;;;;24.80;22.50;;;;;;;;;;521917;28;1436;-74
2023/03/08 01:02:49;;;;;;;25.38;23.10;;;;;;;;;;521769;28;1520;-74
2023/03/08 01:03:05;;;;;;;25.33;23.10;;;;;;;;;;519894;28;1223;-74
2023/03/08 01:03:21;;;;;;;24.73;22.60;;;;;;;;;;520107;28;1267;-74
2023/03/08 01:03:36;;;;;;;25.13;22.85;;;;;;;;;;516535;28;1513;-75
2023/03/08 01:03:51;;;;;;;25.13;22.83;;;;;;;;;;517626;28;1369;-73
2023/03/08 01:04:07;;;;;;;24.97;22.67;;;;;;;;;;521067;28;1252;-75
2023/03/08 01:04:22;;;;;;;24.93;22.63;;;;;;;;;;520133;28;1317;-74
2023/03/08 01:04:37;;;;;;;25.30;22.92;;;;;;;;;;522658;28;1467;-74
2023/03/08 01:04:53;;;;;;;25.80;23.40;;;;;;;;;;521478;28;1257;-74
2023/03/08 01:05:08;;;;;;;25.57;23.27;;;;;;;;;;521569;28;1238;-74
2023/03/08 01:05:24;;;;;;;25.00;22.80;;;;;;;;;;520013;28;1369;-74
2023/03/08 01:05:40;;;;;;;25.02;22.83;;;;;;;;;;521396;28;1444;-74
2023/03/08 01:05:57;;;;;;;25.40;23.10;;;;;;;;;;520042;28;1524;-73
2023/03/08 01:06:14;;;;;;;26.17;23.77;;;;;;;;;;519425;28;1299;-73
2023/03/08 01:06:29;;;;;;;26.13;23.73;;;;;;;;;;516814;28;1533;-74
2023/03/08 01:06:45;;;;;;;25.87;23.53;;;;;;;;;;516016;28;1228;-74
2023/03/08 01:07:00;;;;;;;25.85;23.55;;;;;;;;;;518577;28;1441;-74
2023/03/08 01:07:15;;;;;;;25.70;23.40;;;;;;;;;;518954;28;1536;-74
2023/03/08 01:07:31;;;;;;;25.73;23.43;;;;;;;;;;517780;28;1983;-74
2023/03/08 01:07:46;;;;;;;26.10;23.73;;;;;;;;;;518398;28;1266;-74
2023/03/08 01:08:03;;;;;;;26.57;24.17;;;;;;;;;;517774;28;1339;-74
2023/03/08 01:08:20;;;;;;;26.83;24.42;;;;;;;;;;518793;28;1496;-74
2023/03/08 01:08:36;;;;;;;26.65;24.23;;;;;;;;;;520978;28;1303;-74
2023/03/08 01:08:51;;;;;;;26.80;24.30;;;;;;;;;;521062;28;1449;-74
2023/03/08 01:09:06;;;;;;;27.10;24.60;;;;;;;;;;517824;28;1453;-75
2023/03/08 01:09:22;;;;;;;27.07;24.67;;;;;;;;;;520807;28;1481;-74
2023/03/08 01:09:37;;;;;;;27.02;24.52;;;;;;;;;;520817;28;1453;-74
2023/03/08 01:09:54;;;;;;;26.67;24.17;;;;;;;;;;519694;28;1380;-74
2023/03/08 01:10:10;;;;;;;27.20;24.70;;;;;;;;;;517404;28;1474;-74
2023/03/08 01:10:25;;;;;;;26.98;24.48;;;;;;;;;;518105;28;1295;-74
2023/03/08 01:10:50;;;;;;;25.90;23.50;;;;;;;;;;517340;28;1442;-74
2023/03/08 01:11:05;;;;;;;25.92;23.52;;;;;;;;;;517553;28;1506;-73
2023/03/08 01:11:23;;;;;;;25.60;23.30;;;;;;;;;;518872;28;1359;-74
2023/03/08 01:11:39;;;;;;;25.67;23.35;;;;;;;;;;518005;28;1299;-74
2023/03/08 01:11:54;;;;;;;26.63;24.23;;;;;;;;;;516897;28;1354;-74
2023/03/08 01:12:09;;;;;;;27.30;24.80;;;;;;;;;;516897;28;1541;-74
2023/03/08 01:12:25;;;;;;;27.45;24.88;;;;;;;;;;516847;28;1533;-74
2023/03/08 01:12:40;;;;;;;27.20;24.70;;;;;;;;;;515137;28;1442;-73
2023/03/08 01:12:55;;;;;;;26.80;24.30;;;;;;;;;;518787;28;1532;-74
2023/03/08 01:13:11;;;;;;;26.53;24.03;;;;;;;;;;518874;28;1526;-74
2023/03/08 01:13:33;;;;;;;26.13;23.73;;;;;;;;;;517080;28;1263;-74
2023/03/08 01:13:49;;;;;;;27.52;24.90;;;;;;;;;;518559;28;1378;-74
2023/03/08 01:14:07;;;;;;;27.48;24.85;;;;;;;;;;520544;28;1449;-74
2023/03/08 01:14:23;;;;;;;23.92;21.75;;;;;;;;;;520325;28;1481;-73
2023/03/08 01:14:38;;;;;;;23.00;21.00;;;;;;;;;;518749;28;1460;-74
2023/03/08 01:14:53;;;;;;;24.92;22.65;;;;;;;;;;518865;28;1564;-74
2023/03/08 01:15:09;;;;;;;26.43;23.83;;;;;;;;;;518420;28;1465;-74
2023/03/08 01:15:24;;;;;;;25.85;23.38;;;;;;;;;;516874;28;1256;-73
2023/03/08 01:15:39;;;;;;;24.97;22.60;;;;;;;;;;520830;28;1470;-74
2023/03/08 01:15:55;;;;;;;24.37;22.13;;;;;;;;;;522113;28;1392;-73
2023/03/08 01:16:22;;;;;;;25.23;22.92;;;;;;;;;;520819;28;1274;-74
2023/03/08 01:16:37;;;;;;;26.85;24.35;;;;;;;;;;518203;28;1437;-74
2023/03/08 01:16:52;;;;;;;27.27;24.70;;;;;;;;;;518622;28;1227;-74
2023/03/08 01:17:08;;;;;;;28.00;25.37;;;;;;;;;;519625;28;1355;-74
2023/03/08 01:17:23;;;;;;;28.10;25.42;;;;;;;;;;518184;28;1251;-74
2023/03/08 01:17:38;;;;;;;27.33;24.77;;;;;;;;;;518153;28;1414;-73
2023/03/08 01:17:54;;;;;;;26.70;24.20;;;;;;;;;;516312;28;1514;-73
2023/03/08 01:18:09;;;;;;;27.65;25.05;;;;;;;;;;519123;28;1524;-74
2023/03/08 01:18:25;;;;;;;28.00;25.40;;;;;;;;;;519155;28;1208;-73
2023/03/08 01:18:40;;;;;;;28.08;25.48;;;;;;;;;;518301;28;1472;-73
2023/03/08 01:18:56;;;;;;;28.25;25.65;;;;;;;;;;516941;28;1655;-74
2023/03/08 01:19:12;;;;;;;27.27;24.67;;;;;;;;;;516313;28;1379;-74
2023/03/08 01:19:27;;;;;;;26.47;23.97;;;;;;;;;;515701;28;1503;-74
2023/03/08 01:19:42;;;;;;;26.43;24.00;;;;;;;;;;516134;28;1664;-74
2023/03/08 01:19:57;;;;;;;26.77;24.17;;;;;;;;;;514866;28;1303;-73
2023/03/08 01:20:13;;;;;;;26.17;23.67;;;;;;;;;;513695;28;1266;-73
2023/03/08 01:20:28;;;;;;;25.70;23.30;;;;;;;;;;517031;28;1485;-73
2023/03/08 01:20:44;;;;;;;26.07;23.67;;;;;;;;;;517669;28;1402;-74
2023/03/08 01:21:03;;;;;;;25.95;23.58;;;;;;;;;;516097;28;1199;-73
2023/03/08 01:21:19;;;;;;;24.83;22.63;;;;;;;;;;517523;28;1381;-74
2023/03/08 01:21:34;;;;;;;24.02;21.92;;;;;;;;;;518295;28;1521;-73
2023/03/08 01:21:50;;;;;;;23.73;21.65;;;;;;;;;;517728;28;1481;-73
2023/03/08 01:22:05;;;;;;;23.87;21.77;;;;;;;;;;519420;28;1557;-73
2023/03/08 01:22:20;;;;;;;24.43;22.23;;;;;;;;;;519272;28;1544;-73
2023/03/08 01:22:35;;;;;;;24.90;22.60;;;;;;;;;;519831;28;1271;-74
2023/03/08 01:22:51;;;;;;;25.50;23.10;;;;;;;;;;518897;28;1481;-74
2023/03/08 01:23:06;;;;;;;25.30;22.90;;;;;;;;;;518031;28;1592;-74
2023/03/08 01:23:22;;;;;;;25.45;23.10;;;;;;;;;;517456;28;1307;-75
2023/03/08 01:23:37;;;;;;;26.20;23.77;;;;;;;;;;516875;28;1628;-74
2023/03/08 01:23:53;;;;;;;26.77;24.27;;;;;;;;;;516335;28;1387;-74
2023/03/08 01:24:08;;;;;;;27.40;24.90;;;;;;;;;;513786;28;1383;-74
2023/03/08 01:24:24;;;;;;;26.70;24.20;;;;;;;;;;514754;28;1296;-74
2023/03/08 01:24:43;;;;;;;25.20;22.90;;;;;;;;;;517382;28;1299;-74
2023/03/08 01:24:59;;;;;;;25.80;23.50;;;;;;;;;;517561;28;1367;-74
2023/03/08 01:25:14;;;;;;;25.67;23.38;;;;;;;;;;518203;28;1280;-74
2023/03/08 01:25:30;;;;;;;26.50;24.07;;;;;;;;;;518401;28;1240;-75
2023/03/08 01:25:45;;;;;;;27.47;24.97;;;;;;;;;;518504;28;1554;-75
2023/03/08 01:26:03;;;;;;;27.17;24.67;;;;;;;;;;519235;28;1623;-74
2023/03/08 01:26:21;;;;;;;27.48;24.88;;;;;;;;;;518805;28;1361;-73
2023/03/08 01:26:36;;;;;;;27.65;25.05;;;;;;;;;;517400;28;1323;-74
2023/03/08 01:26:54;;;;;;;27.73;25.23;;;;;;;;;;516769;28;1548;-74
2023/03/08 01:27:09;;;;;;;27.75;25.15;;;;;;;;;;515936;28;1401;-75
2023/03/08 01:27:25;;;;;;;27.67;25.07;;;;;;;;;;515385;28;2001;-74
2023/03/08 01:27:40;;;;;;;27.10;24.60;;;;;;;;;;517325;28;1221;-74
2023/03/08 01:27:55;;;;;;;25.57;23.27;;;;;;;;;;520487;28;1385;-75
2023/03/08 01:28:11;;;;;;;26.70;24.20;;;;;;;;;;522442;28;1299;-74
2023/03/08 01:28:27;;;;;;;27.55;24.95;;;;;;;;;;523045;28;1415;-75
2023/03/08 01:28:42;;;;;;;26.02;23.60;;;;;;;;;;523701;28;1547;-75
2023/03/08 01:28:58;;;;;;;26.13;23.63;;;;;;;;;;521813;28;1261;-74
2023/03/08 01:29:13;;;;;;;26.50;24.00;;;;;;;;;;518761;28;1536;-74
2023/03/08 01:29:28;;;;;;;26.23;23.83;;;;;;;;;;520606;28;1461;-74
2023/03/08 01:29:44;;;;;;;26.48;23.98;;;;;;;;;;517955;28;1454;-74
2023/03/08 01:29:59;;;;;;;26.33;23.93;;;;;;;;;;518184;28;1509;-74
2023/03/08 01:30:15;;;;;;;25.60;23.30;;;;;;;;;;517927;28;1490;-74
2023/03/08 01:30:30;;;;;;;25.80;23.50;;;;;;;;;;517791;28;1481;-74
2023/03/08 01:30:45;;;;;;;26.47;24.03;;;;;;;;;;516984;28;1478;-74
2023/03/08 01:31:06;;;;;;;26.38;23.88;;;;;;;;;;517000;28;1526;-75
2023/03/08 01:31:24;;;;;;;26.15;23.67;;;;;;;;;;515275;28;1252;-74
2023/03/08 01:31:39;;;;;;;26.05;23.65;;;;;;;;;;516693;28;1465;-75
2023/03/08 01:31:55;;;;;;;26.20;23.80;;;;;;;;;;516461;28;1439;-75
2023/03/08 01:32:10;;;;;;;26.00;23.63;;;;;;;;;;518234;28;1525;-74
2023/03/08 01:32:26;;;;;;;25.73;23.38;;;;;;;;;;517359;28;1330;-74
2023/03/08 01:32:42;;;;;;;25.98;23.58;;;;;;;;;;519082;28;1437;-74
2023/03/08 01:32:57;;;;;;;26.20;23.80;;;;;;;;;;518667;28;1512;-76
2023/03/08 01:33:12;;;;;;;24.67;22.47;;;;;;;;;;518683;28;1489;-75
2023/03/08 01:33:27;;;;;;;24.63;22.42;;;;;;;;;;519487;28;1240;-75
2023/03/08 01:33:44;;;;;;;25.63;23.33;;;;;;;;;;520763;28;1579;-75
2023/03/08 01:34:00;;;;;;;25.95;23.58;;;;;;;;;;520536;28;1429;-75
2023/03/08 01:34:15;;;;;;;27.40;24.83;;;;;;;;;;520335;28;1508;-75
2023/03/08 01:34:30;;;;;;;27.52;24.98;;;;;;;;;;518819;28;1417;-75
2023/03/08 01:34:46;;;;;;;27.00;24.50;;;;;;;;;;518420;28;1314;-74
2023/03/08 01:35:03;;;;;;;27.02;24.52;;;;;;;;;;520924;28;1512;-75